sensor_id;sensor_type;location;lat;lon;timestamp;pressure;altitude;pressure_sealevel;temperature;humidity
5753;BME280;2901;42.140;24.760;2023-04-24T00:00:12;99324.91;;;11.24;94.89
5753;BME280;2901;42.140;24.760;2023-04-24T00:02:40;99315.44;;;11.20;94.76
5753;BME280;2901;42.140;24.760;2023-04-24T00:05:07;99333.66;;;11.14;96.03
5753;BME280;2901;42.140;24.760;2023-04-24T00:07:33;99331.94;;;11.15;96.15
5753;BME280;2901;42.140;24.760;2023-04-24T00:09:58;99328.50;;;11.16;96.33
5753;BME280;2901;42.140;24.760;2023-04-24T00:12:25;99319.78;;;11.20;96.67
5753;BME280;2901;42.140;24.760;2023-04-24T00:14:50;99324.91;;;11.24;96.72
5753;BME280;2901;42.140;24.760;2023-04-24T00:17:16;99332.63;;;11.30;96.10
5753;BME280;2901;42.140;24.760;2023-04-24T00:19:45;99330.94;;;11.26;95.99
5753;BME280;2901;42.140;24.760;2023-04-24T00:22:10;99326.59;;;11.27;96.47
5753;BME280;2901;42.140;24.760;2023-04-24T00:24:36;99332.56;;;11.33;96.33
5753;BME280;2901;42.140;24.760;2023-04-24T00:27:01;99337.78;;;11.30;96.36
5753;BME280;2901;42.140;24.760;2023-04-24T00:29:27;99325.69;;;11.32;96.59
5753;BME280;2901;42.140;24.760;2023-04-24T00:31:53;99300.81;;;11.18;97.03
5753;BME280;2901;42.140;24.760;2023-04-24T00:34:19;99314.53;;;11.26;96.76
5753;BME280;2901;42.140;24.760;2023-04-24T00:36:44;99314.59;;;11.21;97.45
5753;BME280;2901;42.140;24.760;2023-04-24T00:39:10;99316.28;;;11.25;97.34
5753;BME280;2901;42.140;24.760;2023-04-24T00:41:35;99311.91;;;11.29;97.03
5753;BME280;2901;42.140;24.760;2023-04-24T00:44:01;99315.31;;;11.32;96.98
5753;BME280;2901;42.140;24.760;2023-04-24T00:46:26;99311.88;;;11.30;97.16
5753;BME280;2901;42.140;24.760;2023-04-24T00:48:52;99315.28;;;11.34;97.09
5753;BME280;2901;42.140;24.760;2023-04-24T00:51:18;99317.84;;;11.38;96.96
5753;BME280;2901;42.140;24.760;2023-04-24T00:53:43;99313.44;;;11.43;97.03
5753;BME280;2901;42.140;24.760;2023-04-24T00:56:09;99320.31;;;11.48;96.82
5753;BME280;2901;42.140;24.760;2023-04-24T00:58:35;99321.06;;;11.56;95.98
5753;BME280;2901;42.140;24.760;2023-04-24T01:01:01;99309.94;;;11.48;96.95
5753;BME280;2901;42.140;24.760;2023-04-24T01:03:29;99309.16;;;11.42;96.93
5753;BME280;2901;42.140;24.760;2023-04-24T01:05:57;99316.94;;;11.39;97.00
5753;BME280;2901;42.140;24.760;2023-04-24T01:08:24;99312.63;;;11.40;97.30
5753;BME280;2901;42.140;24.760;2023-04-24T01:10:51;99318.69;;;11.37;97.46
5753;BME280;2901;42.140;24.760;2023-04-24T01:13:18;99319.56;;;11.38;97.35
5753;BME280;2901;42.140;24.760;2023-04-24T01:15:44;99316.22;;;11.28;97.15
5753;BME280;2901;42.140;24.760;2023-04-24T01:18:10;99314.59;;;11.21;98.24
5753;BME280;2901;42.140;24.760;2023-04-24T01:20:36;99313.66;;;11.28;97.86
5753;BME280;2901;42.140;24.760;2023-04-24T01:23:05;99301.47;;;11.33;98.06
5753;BME280;2901;42.140;24.760;2023-04-24T01:25:31;99302.16;;;11.46;96.88
5753;BME280;2901;42.140;24.760;2023-04-24T01:27:57;99296.97;;;11.48;97.03
5753;BME280;2901;42.140;24.760;2023-04-24T01:30:22;99304.69;;;11.52;96.51
5753;BME280;2901;42.140;24.760;2023-04-24T01:32:48;99318.50;;;11.54;96.54
5753;BME280;2901;42.140;24.760;2023-04-24T01:35:13;99307.34;;;11.46;96.53
5753;BME280;2901;42.140;24.760;2023-04-24T01:37:39;99314.25;;;11.49;96.32
5753;BME280;2901;42.140;24.760;2023-04-24T01:40:06;99320.31;;;11.48;96.83
5753;BME280;2901;42.140;24.760;2023-04-24T01:42:32;99319.47;;;11.44;96.82
5753;BME280;2901;42.140;24.760;2023-04-24T01:44:58;99319.53;;;11.41;97.43
5753;BME280;2901;42.140;24.760;2023-04-24T01:47:24;99322.16;;;11.38;96.79
5753;BME280;2901;42.140;24.760;2023-04-24T01:49:50;99312.78;;;11.26;97.60
5753;BME280;2901;42.140;24.760;2023-04-24T01:52:16;99304.34;;;11.12;99.17
5753;BME280;2901;42.140;24.760;2023-04-24T01:54:43;99311.28;;;11.09;99.39
5753;BME280;2901;42.140;24.760;2023-04-24T01:57:08;99311.34;;;11.04;100.00
5753;BME280;2901;42.140;24.760;2023-04-24T01:59:34;99314.03;;;10.95;100.00
5753;BME280;2901;42.140;24.760;2023-04-24T02:02:01;99312.44;;;10.82;100.00
5753;BME280;2901;42.140;24.760;2023-04-24T02:04:27;99316.00;;;10.73;100.00
5753;BME280;2901;42.140;24.760;2023-04-24T02:06:53;99318.63;;;10.69;100.00
5753;BME280;2901;42.140;24.760;2023-04-24T02:09:18;99316.09;;;10.63;100.00
5753;BME280;2901;42.140;24.760;2023-04-24T02:11:43;99309.25;;;10.56;100.00
5753;BME280;2901;42.140;24.760;2023-04-24T02:14:09;99317.06;;;10.53;100.00
5753;BME280;2901;42.140;24.760;2023-04-24T02:16:34;99310.19;;;10.50;100.00
5753;BME280;2901;42.140;24.760;2023-04-24T02:19:01;99296.34;;;10.51;100.00
5753;BME280;2901;42.140;24.760;2023-04-24T02:21:27;99304.09;;;10.56;100.00
5753;BME280;2901;42.140;24.760;2023-04-24T02:23:53;99308.41;;;10.57;100.00
5753;BME280;2901;42.140;24.760;2023-04-24T02:26:18;99302.31;;;10.58;100.00
5753;BME280;2901;42.140;24.760;2023-04-24T02:28:44;99304.97;;;10.53;100.00
5753;BME280;2901;42.140;24.760;2023-04-24T02:31:09;99298.06;;;10.54;100.00
5753;BME280;2901;42.140;24.760;2023-04-24T02:33:35;99298.97;;;10.50;100.00
5753;BME280;2901;42.140;24.760;2023-04-24T02:36:01;99287.75;;;10.48;100.00
5753;BME280;2901;42.140;24.760;2023-04-24T02:38:27;99292.06;;;10.50;100.00
5753;BME280;2901;42.140;24.760;2023-04-24T02:40:52;99291.16;;;10.51;100.00
5753;BME280;2901;42.140;24.760;2023-04-24T02:43:17;99288.56;;;10.56;100.00
5753;BME280;2901;42.140;24.760;2023-04-24T02:45:43;99291.97;;;10.58;100.00
5753;BME280;2901;42.140;24.760;2023-04-24T02:48:08;99291.91;;;10.67;100.00
5753;BME280;2901;42.140;24.760;2023-04-24T02:50:33;99287.59;;;10.66;100.00
5753;BME280;2901;42.140;24.760;2023-04-24T02:52:59;99291.88;;;10.70;100.00
5753;BME280;2901;42.140;24.760;2023-04-24T02:55:24;99289.28;;;10.70;100.00
5753;BME280;2901;42.140;24.760;2023-04-24T02:57:50;99287.56;;;10.69;100.00
5753;BME280;2901;42.140;24.760;2023-04-24T03:00:16;99273.88;;;10.55;100.00
5753;BME280;2901;42.140;24.760;2023-04-24T03:02:41;99293.66;;;10.62;100.00
5753;BME280;2901;42.140;24.760;2023-04-24T03:05:07;99300.56;;;10.63;100.00
5753;BME280;2901;42.140;24.760;2023-04-24T03:07:33;99295.41;;;10.60;100.00
5753;BME280;2901;42.140;24.760;2023-04-24T03:09:58;99301.44;;;10.62;100.00
5753;BME280;2901;42.140;24.760;2023-04-24T03:12:24;99291.91;;;10.64;100.00
5753;BME280;2901;42.140;24.760;2023-04-24T03:14:50;99290.16;;;10.64;100.00
5753;BME280;2901;42.140;24.760;2023-04-24T03:17:15;99296.19;;;10.68;100.00
5753;BME280;2901;42.140;24.760;2023-04-24T03:19:41;99301.34;;;10.69;100.00
5753;BME280;2901;42.140;24.760;2023-04-24T03:22:06;99297.91;;;10.69;100.00
5753;BME280;2901;42.140;24.760;2023-04-24T03:24:31;99298.78;;;10.68;100.00
5753;BME280;2901;42.140;24.760;2023-04-24T03:26:57;99310.91;;;10.63;100.00
5753;BME280;2901;42.140;24.760;2023-04-24T03:29:22;99305.81;;;10.55;100.00
5753;BME280;2901;42.140;24.760;2023-04-24T03:31:48;99308.47;;;10.49;100.00
5753;BME280;2901;42.140;24.760;2023-04-24T03:34:13;99315.38;;;10.49;100.00
5753;BME280;2901;42.140;24.760;2023-04-24T03:36:39;99318.81;;;10.49;100.00
5753;BME280;2901;42.140;24.760;2023-04-24T03:39:04;99318.03;;;10.39;100.00
5753;BME280;2901;42.140;24.760;2023-04-24T03:41:30;99324.94;;;10.37;100.00
5753;BME280;2901;42.140;24.760;2023-04-24T03:43:56;99317.25;;;10.30;100.00
5753;BME280;2901;42.140;24.760;2023-04-24T03:46:21;99308.59;;;10.31;100.00
5753;BME280;2901;42.140;24.760;2023-04-24T03:48:46;99316.38;;;10.34;100.00
5753;BME280;2901;42.140;24.760;2023-04-24T03:51:12;99310.31;;;10.36;100.00
5753;BME280;2901;42.140;24.760;2023-04-24T03:53:37;99309.41;;;10.40;100.00
5753;BME280;2901;42.140;24.760;2023-04-24T03:56:03;99298.13;;;10.45;100.00
5753;BME280;2901;42.140;24.760;2023-04-24T03:58:28;99296.31;;;10.54;100.00
5753;BME280;2901;42.140;24.760;2023-04-24T04:00:53;99305.75;;;10.63;100.00
5753;BME280;2901;42.140;24.760;2023-04-24T04:03:19;99307.41;;;10.70;100.00
5753;BME280;2901;42.140;24.760;2023-04-24T04:05:44;99303.88;;;10.74;100.00
5753;BME280;2901;42.140;24.760;2023-04-24T04:08:10;99293.53;;;10.75;100.00
5753;BME280;2901;42.140;24.760;2023-04-24T04:10:35;99303.72;;;10.90;100.00
5753;BME280;2901;42.140;24.760;2023-04-24T04:13:01;99310.63;;;10.90;100.00
5753;BME280;2901;42.140;24.760;2023-04-24T04:15:26;99314.00;;;10.97;100.00
5753;BME280;2901;42.140;24.760;2023-04-24T04:17:51;99314.94;;;10.91;100.00
5753;BME280;2901;42.140;24.760;2023-04-24T04:20:17;99320.03;;;10.99;100.00
5753;BME280;2901;42.140;24.760;2023-04-24T04:22:42;99320.97;;;10.93;100.00
5753;BME280;2901;42.140;24.760;2023-04-24T04:25:08;99327.09;;;10.86;100.00
5753;BME280;2901;42.140;24.760;2023-04-24T04:27:34;99333.13;;;10.86;100.00
5753;BME280;2901;42.140;24.760;2023-04-24T04:30:00;99327.03;;;10.92;100.00
5753;BME280;2901;42.140;24.760;2023-04-24T04:32:32;99326.06;;;11.01;100.00
5753;BME280;2901;42.140;24.760;2023-04-24T04:34:58;99332.97;;;11.02;100.00
5753;BME280;2901;42.140;24.760;2023-04-24T04:37:31;99332.16;;;10.93;100.00
5753;BME280;2901;42.140;24.760;2023-04-24T04:39:57;99331.25;;;10.99;100.00
5753;BME280;2901;42.140;24.760;2023-04-24T04:42:24;99324.25;;;11.07;100.00
5753;BME280;2901;42.140;24.760;2023-04-24T04:44:49;99319.19;;;10.97;100.00
5753;BME280;2901;42.140;24.760;2023-04-24T04:47:15;99323.47;;;11.01;100.00
5753;BME280;2901;42.140;24.760;2023-04-24T04:49:42;99330.25;;;11.11;100.00
5753;BME280;2901;42.140;24.760;2023-04-24T04:52:08;99335.31;;;11.21;100.00
5753;BME280;2901;42.140;24.760;2023-04-24T04:54:33;99327.44;;;11.30;100.00
5753;BME280;2901;42.140;24.760;2023-04-24T04:56:59;99329.94;;;11.38;100.00
5753;BME280;2901;42.140;24.760;2023-04-24T04:59:26;99317.72;;;11.46;99.79
5753;BME280;2901;42.140;24.760;2023-04-24T05:01:51;99308.94;;;11.56;99.48
5753;BME280;2901;42.140;24.760;2023-04-24T05:04:17;99317.34;;;11.76;98.33
5753;BME280;2901;42.140;24.760;2023-04-24T05:06:42;99322.22;;;11.98;97.72
5753;BME280;2901;42.140;24.760;2023-04-24T05:09:08;99315.88;;;12.18;95.67
5753;BME280;2901;42.140;24.760;2023-04-24T05:11:33;99312.03;;;12.40;95.02
5753;BME280;2901;42.140;24.760;2023-04-24T05:13:58;99320.41;;;12.58;93.40
5753;BME280;2901;42.140;24.760;2023-04-24T05:16:24;99318.44;;;12.69;92.58
5753;BME280;2901;42.140;24.760;2023-04-24T05:18:49;99313.91;;;12.80;92.28
5753;BME280;2901;42.140;24.760;2023-04-24T05:21:15;99312.31;;;12.74;92.80
5753;BME280;2901;42.140;24.760;2023-04-24T05:23:40;99305.38;;;12.73;92.62
5753;BME280;2901;42.140;24.760;2023-04-24T05:26:06;99306.00;;;12.86;92.14
5753;BME280;2901;42.140;24.760;2023-04-24T05:28:31;99302.53;;;12.87;92.28
5753;BME280;2901;42.140;24.760;2023-04-24T05:30:57;99305.94;;;12.90;92.11
5753;BME280;2901;42.140;24.760;2023-04-24T05:33:24;99286.81;;;12.93;90.41
5753;BME280;2901;42.140;24.760;2023-04-24T05:35:49;99285.97;;;12.91;91.14
5753;BME280;2901;42.140;24.760;2023-04-24T05:38:15;99269.50;;;12.93;90.87
5753;BME280;2901;42.140;24.760;2023-04-24T05:40:43;99278.09;;;12.95;90.83
5753;BME280;2901;42.140;24.760;2023-04-24T05:43:08;99282.28;;;13.02;90.27
5753;BME280;2901;42.140;24.760;2023-04-24T05:45:33;99283.88;;;13.11;90.29
5753;BME280;2901;42.140;24.760;2023-04-24T05:48:01;99286.41;;;13.14;89.95
5753;BME280;2901;42.140;24.760;2023-04-24T05:50:26;99285.09;;;13.36;89.84
5753;BME280;2901;42.140;24.760;2023-04-24T05:52:53;99282.88;;;13.58;89.28
5753;BME280;2901;42.140;24.760;2023-04-24T05:55:19;99288.84;;;13.63;88.50
5753;BME280;2901;42.140;24.760;2023-04-24T05:57:45;99278.41;;;13.65;87.99
5753;BME280;2901;42.140;24.760;2023-04-24T06:00:11;99283.66;;;13.62;88.80
5753;BME280;2901;42.140;24.760;2023-04-24T06:02:38;99282.22;;;13.48;89.00
5753;BME280;2901;42.140;24.760;2023-04-24T06:05:04;99286.84;;;13.36;90.13
5753;BME280;2901;42.140;24.760;2023-04-24T06:07:30;99285.97;;;13.37;90.53
5753;BME280;2901;42.140;24.760;2023-04-24T06:09:56;99289.38;;;13.37;90.80
5753;BME280;2901;42.140;24.760;2023-04-24T06:12:21;99295.78;;;13.23;92.19
5753;BME280;2901;42.140;24.760;2023-04-24T06:14:47;99290.25;;;13.39;91.94
5753;BME280;2901;42.140;24.760;2023-04-24T06:17:12;99291.75;;;13.49;92.03
5753;BME280;2901;42.140;24.760;2023-04-24T06:19:38;99286.38;;;13.57;92.37
5753;BME280;2901;42.140;24.760;2023-04-24T06:22:04;99295.72;;;13.66;91.64
5753;BME280;2901;42.140;24.760;2023-04-24T06:24:29;99294.06;;;13.62;91.53
5753;BME280;2901;42.140;24.760;2023-04-24T06:26:55;99296.44;;;13.72;91.84
5753;BME280;2901;42.140;24.760;2023-04-24T06:29:21;99289.94;;;13.90;90.86
5753;BME280;2901;42.140;24.760;2023-04-24T06:31:47;99289.59;;;14.05;88.38
5753;BME280;2901;42.140;24.760;2023-04-24T06:34:12;99292.94;;;14.10;88.49
5753;BME280;2901;42.140;24.760;2023-04-24T06:36:38;99284.09;;;14.17;88.21
5753;BME280;2901;42.140;24.760;2023-04-24T06:39:03;99287.03;;;14.40;88.32
5753;BME280;2901;42.140;24.760;2023-04-24T06:41:29;99287.25;;;14.65;87.15
5753;BME280;2901;42.140;24.760;2023-04-24T06:43:55;99286.66;;;14.86;85.94
5753;BME280;2901;42.140;24.760;2023-04-24T06:46:21;99286.00;;;15.11;85.07
5753;BME280;2901;42.140;24.760;2023-04-24T06:48:52;99287.84;;;15.36;83.19
5753;BME280;2901;42.140;24.760;2023-04-24T06:51:17;99284.03;;;15.49;82.28
5753;BME280;2901;42.140;24.760;2023-04-24T06:53:43;99294.19;;;15.58;81.91
5753;BME280;2901;42.140;24.760;2023-04-24T06:56:09;99290.50;;;15.66;81.86
5753;BME280;2901;42.140;24.760;2023-04-24T06:58:34;99279.94;;;15.69;80.48
5753;BME280;2901;42.140;24.760;2023-04-24T07:01:00;99288.22;;;15.83;81.09
5753;BME280;2901;42.140;24.760;2023-04-24T07:03:25;99282.78;;;15.90;80.47
5753;BME280;2901;42.140;24.760;2023-04-24T07:05:51;99289.16;;;16.08;79.18
5753;BME280;2901;42.140;24.760;2023-04-24T07:08:16;99284.16;;;16.00;80.11
5753;BME280;2901;42.140;24.760;2023-04-24T07:10:43;99293.03;;;15.96;78.91
5753;BME280;2901;42.140;24.760;2023-04-24T07:13:09;99278.38;;;15.91;78.68
5753;BME280;2901;42.140;24.760;2023-04-24T07:15:34;99296.50;;;15.97;77.77
5753;BME280;2901;42.140;24.760;2023-04-24T07:18:00;99296.66;;;15.91;77.78
5753;BME280;2901;42.140;24.760;2023-04-24T07:20:25;99300.84;;;15.96;77.28
5753;BME280;2901;42.140;24.760;2023-04-24T07:22:51;99293.91;;;15.95;75.70
5753;BME280;2901;42.140;24.760;2023-04-24T07:25:17;99290.22;;;16.02;76.47
5753;BME280;2901;42.140;24.760;2023-04-24T07:27:42;99294.47;;;16.05;76.33
5753;BME280;2901;42.140;24.760;2023-04-24T07:30:08;99286.19;;;16.19;75.21
5753;BME280;2901;42.140;24.760;2023-04-24T07:32:33;99293.06;;;16.47;74.39
5753;BME280;2901;42.140;24.760;2023-04-24T07:35:00;99288.84;;;16.70;72.38
5753;BME280;2901;42.140;24.760;2023-04-24T07:37:25;99290.22;;;16.80;73.60
5753;BME280;2901;42.140;24.760;2023-04-24T07:39:51;99290.09;;;16.84;73.02
5753;BME280;2901;42.140;24.760;2023-04-24T07:42:16;99291.72;;;17.11;71.50
5753;BME280;2901;42.140;24.760;2023-04-24T07:44:42;99283.38;;;17.25;71.05
5753;BME280;2901;42.140;24.760;2023-04-24T07:47:07;99285.66;;;17.57;70.80
5753;BME280;2901;42.140;24.760;2023-04-24T07:49:33;99279.59;;;18.00;68.41
5753;BME280;2901;42.140;24.760;2023-04-24T07:52:00;99277.56;;;18.29;66.44
5753;BME280;2901;42.140;24.760;2023-04-24T07:54:27;99277.72;;;18.04;66.46
5753;BME280;2901;42.140;24.760;2023-04-24T07:56:53;99277.44;;;18.32;66.24
5753;BME280;2901;42.140;24.760;2023-04-24T07:59:19;99264.56;;;18.47;65.00
5753;BME280;2901;42.140;24.760;2023-04-24T08:01:44;99264.47;;;18.49;65.24
5753;BME280;2901;42.140;24.760;2023-04-24T08:04:09;99262.38;;;18.77;64.69
5753;BME280;2901;42.140;24.760;2023-04-24T08:06:35;99267.94;;;18.49;64.67
5753;BME280;2901;42.140;24.760;2023-04-24T08:09:00;99271.41;;;18.30;64.65
5753;BME280;2901;42.140;24.760;2023-04-24T08:11:26;99267.97;;;18.28;64.77
5753;BME280;2901;42.140;24.760;2023-04-24T08:13:52;99265.25;;;18.31;64.29
5753;BME280;2901;42.140;24.760;2023-04-24T08:16:17;99259.50;;;18.21;65.12
5753;BME280;2901;42.140;24.760;2023-04-24T08:18:43;99265.44;;;18.26;64.93
5753;BME280;2901;42.140;24.760;2023-04-24T08:21:08;99258.59;;;18.44;64.58
5753;BME280;2901;42.140;24.760;2023-04-24T08:23:34;99261.69;;;18.32;63.51
5753;BME280;2901;42.140;24.760;2023-04-24T08:25:59;99264.50;;;18.07;64.70
5753;BME280;2901;42.140;24.760;2023-04-24T08:28:25;99255.66;;;17.88;66.43
5753;BME280;2901;42.140;24.760;2023-04-24T08:30:51;99251.25;;;18.10;66.04
5753;BME280;2901;42.140;24.760;2023-04-24T08:33:22;99246.78;;;18.12;66.09
5753;BME280;2901;42.140;24.760;2023-04-24T08:35:48;99231.06;;;18.12;66.79
5753;BME280;2901;42.140;24.760;2023-04-24T08:38:13;99236.53;;;18.07;68.48
5753;BME280;2901;42.140;24.760;2023-04-24T08:40:39;99227.28;;;18.19;68.76
5753;BME280;2901;42.140;24.760;2023-04-24T08:43:05;99228.66;;;17.86;68.66
5753;BME280;2901;42.140;24.760;2023-04-24T08:45:32;99222.69;;;18.04;67.25
5753;BME280;2901;42.140;24.760;2023-04-24T08:47:58;99226.63;;;18.14;66.03
5753;BME280;2901;42.140;24.760;2023-04-24T08:50:24;99211.97;;;18.30;65.65
5753;BME280;2901;42.140;24.760;2023-04-24T08:52:50;99222.97;;;18.38;65.00
5753;BME280;2901;42.140;24.760;2023-04-24T08:55:16;99222.72;;;18.64;63.98
5753;BME280;2901;42.140;24.760;2023-04-24T08:57:45;99214.38;;;18.95;61.33
5753;BME280;2901;42.140;24.760;2023-04-24T09:00:11;99214.81;;;19.24;62.08
5753;BME280;2901;42.140;24.760;2023-04-24T09:02:36;99210.69;;;19.37;61.23
5753;BME280;2901;42.140;24.760;2023-04-24T09:05:02;99204.41;;;19.41;60.97
5753;BME280;2901;42.140;24.760;2023-04-24T09:07:30;99194.75;;;19.41;61.78
5753;BME280;2901;42.140;24.760;2023-04-24T09:09:58;99201.81;;;19.21;63.15
5753;BME280;2901;42.140;24.760;2023-04-24T09:12:24;99206.16;;;19.22;63.88
5753;BME280;2901;42.140;24.760;2023-04-24T09:14:50;99200.91;;;19.22;62.08
5753;BME280;2901;42.140;24.760;2023-04-24T09:17:16;99201.47;;;19.28;62.20
5753;BME280;2901;42.140;24.760;2023-04-24T09:19:41;99193.09;;;19.20;62.46
5753;BME280;2901;42.140;24.760;2023-04-24T09:22:07;99199.00;;;19.25;61.41
5753;BME280;2901;42.140;24.760;2023-04-24T09:24:34;99192.53;;;19.32;61.49
5753;BME280;2901;42.140;24.760;2023-04-24T09:27:00;99194.63;;;19.44;61.95
5753;BME280;2901;42.140;24.760;2023-04-24T09:29:29;99186.72;;;19.44;60.58
5753;BME280;2901;42.140;24.760;2023-04-24T09:31:54;99183.84;;;19.67;60.16
5753;BME280;2901;42.140;24.760;2023-04-24T09:34:24;99190.22;;;19.81;59.69
5753;BME280;2901;42.140;24.760;2023-04-24T09:36:50;99176.94;;;19.84;61.80
5753;BME280;2901;42.140;24.760;2023-04-24T09:39:16;99179.16;;;19.74;62.83
5753;BME280;2901;42.140;24.760;2023-04-24T09:41:53;99178.16;;;19.77;62.80
5753;BME280;2901;42.140;24.760;2023-04-24T09:44:20;99170.72;;;19.67;64.25
5753;BME280;2901;42.140;24.760;2023-04-24T09:46:50;99170.06;;;19.45;64.97
5753;BME280;2901;42.140;24.760;2023-04-24T09:49:22;99167.03;;;19.34;64.78
5753;BME280;2901;42.140;24.760;2023-04-24T09:51:49;99175.53;;;19.41;64.25
5753;BME280;2901;42.140;24.760;2023-04-24T09:54:15;99161.44;;;19.60;62.77
5753;BME280;2901;42.140;24.760;2023-04-24T09:56:46;99153.44;;;19.81;62.13
5753;BME280;2901;42.140;24.760;2023-04-24T09:59:13;99150.81;;;19.81;61.27
5753;BME280;2901;42.140;24.760;2023-04-24T10:01:39;99154.19;;;19.65;62.53
5753;BME280;2901;42.140;24.760;2023-04-24T10:04:15;99151.88;;;19.77;62.26
5753;BME280;2901;42.140;24.760;2023-04-24T10:06:42;99141.22;;;19.80;62.35
5753;BME280;2901;42.140;24.760;2023-04-24T10:09:08;99146.47;;;19.80;62.57
5753;BME280;2901;42.140;24.760;2023-04-24T10:11:36;99150.34;;;20.07;62.12
5753;BME280;2901;42.140;24.760;2023-04-24T10:14:02;99126.00;;;20.20;60.87
5753;BME280;2901;42.140;24.760;2023-04-24T10:16:29;99141.19;;;20.48;60.00
5753;BME280;2901;42.140;24.760;2023-04-24T10:18:59;99140.38;;;20.48;59.61
5753;BME280;2901;42.140;24.760;2023-04-24T10:21:26;99120.38;;;20.28;59.67
5753;BME280;2901;42.140;24.760;2023-04-24T10:23:51;99134.81;;;20.69;59.04
5753;BME280;2901;42.140;24.760;2023-04-24T10:26:17;99132.38;;;20.82;57.97
5753;BME280;2901;42.140;24.760;2023-04-24T10:28:47;99123.78;;;21.11;57.37
5753;BME280;2901;42.140;24.760;2023-04-24T10:31:14;99117.16;;;21.20;56.95
5753;BME280;2901;42.140;24.760;2023-04-24T10:33:43;99118.78;;;21.23;57.00
5753;BME280;2901;42.140;24.760;2023-04-24T10:36:12;99117.75;;;21.25;57.45
5753;BME280;2901;42.140;24.760;2023-04-24T10:38:41;99117.91;;;21.38;56.97
5753;BME280;2901;42.140;24.760;2023-04-24T10:41:12;99100.94;;;21.12;58.48
5753;BME280;2901;42.140;24.760;2023-04-24T10:44:03;99097.78;;;21.21;58.31
5753;BME280;2901;42.140;24.760;2023-04-24T10:46:29;99089.19;;;21.33;57.87
5753;BME280;2901;42.140;24.760;2023-04-24T10:48:56;99088.59;;;21.28;57.86
5753;BME280;2901;42.140;24.760;2023-04-24T10:51:22;99086.06;;;21.27;57.87
5753;BME280;2901;42.140;24.760;2023-04-24T10:53:52;99083.59;;;21.24;58.08
5753;BME280;2901;42.140;24.760;2023-04-24T10:56:17;99091.75;;;21.19;58.70
5753;BME280;2901;42.140;24.760;2023-04-24T10:58:45;99084.19;;;21.13;59.22
5753;BME280;2901;42.140;24.760;2023-04-24T11:01:30;99078.50;;;21.20;58.58
5753;BME280;2901;42.140;24.760;2023-04-24T11:04:00;99078.88;;;21.44;58.29
5753;BME280;2901;42.140;24.760;2023-04-24T11:06:33;99067.28;;;21.62;57.12
5753;BME280;2901;42.140;24.760;2023-04-24T11:09:08;99063.25;;;21.57;57.36
5753;BME280;2901;42.140;24.760;2023-04-24T11:11:38;99070.25;;;21.72;57.15
5753;BME280;2901;42.140;24.760;2023-04-24T11:14:06;99057.28;;;21.83;56.51
5753;BME280;2901;42.140;24.760;2023-04-24T11:19:18;99057.28;;;21.83;56.75
5753;BME280;2901;42.140;24.760;2023-04-24T11:29:48;99044.91;;;21.69;55.95
5753;BME280;2901;42.140;24.760;2023-04-24T11:34:45;99035.97;;;21.72;57.04
5753;BME280;2901;42.140;24.760;2023-04-24T11:37:11;99039.47;;;22.02;56.11
5753;BME280;2901;42.140;24.760;2023-04-24T11:39:37;99029.84;;;22.44;55.26
5753;BME280;2901;42.140;24.760;2023-04-24T11:42:03;99026.06;;;22.76;54.42
5753;BME280;2901;42.140;24.760;2023-04-24T11:44:29;99025.47;;;23.12;53.30
5753;BME280;2901;42.140;24.760;2023-04-24T11:46:55;99025.22;;;23.29;52.70
5753;BME280;2901;42.140;24.760;2023-04-24T11:49:21;99021.50;;;23.46;52.19
5753;BME280;2901;42.140;24.760;2023-04-24T11:51:46;99014.34;;;23.60;52.24
5753;BME280;2901;42.140;24.760;2023-04-24T11:54:12;99004.88;;;23.70;51.06
5753;BME280;2901;42.140;24.760;2023-04-24T11:56:37;98998.72;;;23.70;51.28
5753;BME280;2901;42.140;24.760;2023-04-24T11:59:04;98990.16;;;23.79;51.24
5753;BME280;2901;42.140;24.760;2023-04-24T12:01:29;98989.09;;;23.69;50.75
5753;BME280;2901;42.140;24.760;2023-04-24T12:03:59;98983.78;;;23.56;51.42
5753;BME280;2901;42.140;24.760;2023-04-24T12:06:25;98978.28;;;23.59;51.16
5753;BME280;2901;42.140;24.760;2023-04-24T12:08:52;98979.56;;;23.66;51.24
5753;BME280;2901;42.140;24.760;2023-04-24T12:11:20;98975.78;;;23.70;51.73
5753;BME280;2901;42.140;24.760;2023-04-24T12:13:45;98974.72;;;23.60;51.68
5753;BME280;2901;42.140;24.760;2023-04-24T12:16:11;98956.50;;;23.56;52.05
5753;BME280;2901;42.140;24.760;2023-04-24T12:18:44;98941.22;;;23.34;53.10
5753;BME280;2901;42.140;24.760;2023-04-24T12:21:21;98938.88;;;23.17;54.44
5753;BME280;2901;42.140;24.760;2023-04-24T12:23:48;98927.38;;;23.31;54.37
5753;BME280;2901;42.140;24.760;2023-04-24T12:26:18;98926.84;;;23.38;54.15
5753;BME280;2901;42.140;24.760;2023-04-24T12:28:46;98924.31;;;23.24;55.56
5753;BME280;2901;42.140;24.760;2023-04-24T12:31:13;98908.22;;;23.14;55.33
5753;BME280;2901;42.140;24.760;2023-04-24T12:33:38;98908.00;;;23.17;55.11
5753;BME280;2901;42.140;24.760;2023-04-24T12:36:04;98901.75;;;23.18;54.82
5753;BME280;2901;42.140;24.760;2023-04-24T12:38:30;98894.81;;;23.30;53.46
5753;BME280;2901;42.140;24.760;2023-04-24T12:41:03;98898.75;;;23.37;53.25
5753;BME280;2901;42.140;24.760;2023-04-24T12:43:30;98894.53;;;23.35;53.00
5753;BME280;2901;42.140;24.760;2023-04-24T12:45:55;98890.50;;;23.42;53.77
5753;BME280;2901;42.140;24.760;2023-04-24T12:48:21;98884.06;;;23.58;53.70
5753;BME280;2901;42.140;24.760;2023-04-24T12:50:47;98874.13;;;23.49;52.74
5753;BME280;2901;42.140;24.760;2023-04-24T12:53:13;98878.31;;;23.39;52.77
5753;BME280;2901;42.140;24.760;2023-04-24T12:55:39;98870.22;;;23.42;53.29
5753;BME280;2901;42.140;24.760;2023-04-24T12:58:05;98862.47;;;23.39;52.37
5753;BME280;2901;42.140;24.760;2023-04-24T13:00:30;98857.81;;;23.30;53.07
5753;BME280;2901;42.140;24.760;2023-04-24T13:02:56;98864.38;;;23.37;52.61
5753;BME280;2901;42.140;24.760;2023-04-24T13:05:21;98861.53;;;23.27;52.64
5753;BME280;2901;42.140;24.760;2023-04-24T13:07:46;98858.84;;;23.02;53.15
5753;BME280;2901;42.140;24.760;2023-04-24T13:10:12;98853.78;;;23.12;53.45
5753;BME280;2901;42.140;24.760;2023-04-24T13:12:38;98848.00;;;23.19;53.67
5753;BME280;2901;42.140;24.760;2023-04-24T13:15:04;98841.25;;;23.28;53.80